createdAt,value
2023-03-01T00:00:10.220Z,14.10
2023-03-01T00:02:42.919Z,12.20
2023-03-01T00:05:11.130Z,11.80
2023-03-01T00:07:39.180Z,13.00
2023-03-01T00:10:12.349Z,10.90
2023-03-01T00:12:41.607Z,11.10
2023-03-01T00:15:09.681Z,13.80
2023-03-01T00:17:37.840Z,15.80
2023-03-01T00:20:11.415Z,12.20
2023-03-01T00:22:40.778Z,16.00
2023-03-01T00:25:09.155Z,15.90
2023-03-01T00:27:37.564Z,12.70
2023-03-01T00:30:06.865Z,14.00
2023-03-01T00:32:35.319Z,13.00
2023-03-01T00:35:03.763Z,13.20
2023-03-01T00:37:32.039Z,13.60
2023-03-01T00:40:00.493Z,12.70
2023-03-01T00:42:28.896Z,12.30
2023-03-01T00:44:56.996Z,12.00
2023-03-01T00:47:25.378Z,10.40
2023-03-01T00:49:56.208Z,11.90
2023-03-01T00:52:24.386Z,14.70
2023-03-01T00:54:54.216Z,14.40
2023-03-01T00:57:23.402Z,16.80
2023-03-01T00:59:53.382Z,12.30
2023-03-01T01:02:22.271Z,15.00
2023-03-01T01:04:50.460Z,12.50
2023-03-01T01:07:21.252Z,12.80
2023-03-01T01:09:49.707Z,12.40
2023-03-01T01:12:22.192Z,11.40
2023-03-01T01:14:50.803Z,13.20
2023-03-01T01:17:18.827Z,11.70
2023-03-01T01:19:46.926Z,13.00
2023-03-01T01:22:17.120Z,11.00
2023-03-01T01:24:45.381Z,13.30
2023-03-01T01:27:13.436Z,12.60
2023-03-01T01:29:43.079Z,12.60
2023-03-01T01:32:11.212Z,11.70
2023-03-01T01:34:40.314Z,11.90
2023-03-01T01:37:09.027Z,10.00
2023-03-01T01:42:06.756Z,13.50
2023-03-01T01:44:34.983Z,9.90
2023-03-01T01:47:07.918Z,12.60
2023-03-01T01:49:50.209Z,10.70
2023-03-01T01:52:23.922Z,10.00
2023-03-01T01:54:53.148Z,12.10
2023-03-01T01:57:31.064Z,11.70
2023-03-01T02:00:08.739Z,12.70
2023-03-01T02:02:44.168Z,11.30
2023-03-01T02:05:27.184Z,10.90
2023-03-01T02:07:55.846Z,11.90
2023-03-01T02:10:23.929Z,10.90
2023-03-01T02:12:52.697Z,10.60
2023-03-01T02:15:21.144Z,12.50
2023-03-01T02:17:54.639Z,13.10
2023-03-01T02:20:54.273Z,11.10
2023-03-01T02:23:24.161Z,12.20
2023-03-01T02:26:34.447Z,10.40
2023-03-01T02:29:02.464Z,9.50
2023-03-01T02:31:43.679Z,13.10
2023-03-01T02:34:23.110Z,11.00
2023-03-01T02:37:21.632Z,11.40
2023-03-01T02:40:18.867Z,13.60
2023-03-01T02:42:58.320Z,13.90
2023-03-01T02:45:27.653Z,12.90
2023-03-01T02:47:56.880Z,10.60
2023-03-01T02:50:31.455Z,11.70
2023-03-01T02:53:03.190Z,11.00
2023-03-01T02:55:31.205Z,13.90
2023-03-01T02:57:59.482Z,12.70
2023-03-01T03:00:34.301Z,11.30
2023-03-01T03:03:02.575Z,13.00
2023-03-01T03:05:31.532Z,13.20
2023-03-01T03:08:01.303Z,10.40
2023-03-01T03:10:33.450Z,10.00
2023-03-01T03:13:05.210Z,13.90
2023-03-01T03:15:37.172Z,9.80
2023-03-01T03:18:12.447Z,10.30
2023-03-01T03:20:42.072Z,12.50
2023-03-01T03:23:12.742Z,13.00
2023-03-01T03:25:42.515Z,10.80
2023-03-01T03:28:11.127Z,15.30
2023-03-01T03:30:40.645Z,14.00
2023-03-01T03:33:11.917Z,11.00
2023-03-01T03:35:47.193Z,13.30
2023-03-01T03:38:17.847Z,12.50
2023-03-01T03:40:50.312Z,13.60
2023-03-01T03:43:23.341Z,13.70
2023-03-01T03:45:52.069Z,16.20
2023-03-01T03:48:20.930Z,11.10
2023-03-01T03:50:51.697Z,13.00
2023-03-01T03:53:20.446Z,15.50
2023-03-01T03:55:50.462Z,11.50
2023-03-01T03:58:20.998Z,14.40
2023-03-01T04:00:51.192Z,15.80
2023-03-01T04:03:20.013Z,15.40
2023-03-01T04:05:48.549Z,15.90
2023-03-01T04:08:17.233Z,15.90
2023-03-01T04:10:48.417Z,13.50
2023-03-01T04:13:21.880Z,13.90
2023-03-01T04:15:51.947Z,13.30
2023-03-01T04:18:23.996Z,12.90
2023-03-01T04:20:53.383Z,14.60
2023-03-01T04:25:56.855Z,13.00
2023-03-01T04:28:37.211Z,13.30
2023-03-01T04:31:18.502Z,13.60
2023-03-01T04:33:52.602Z,11.20
2023-03-01T04:36:22.593Z,11.60
2023-03-01T04:38:51.463Z,13.70
2023-03-01T04:41:21.702Z,14.60
2023-03-01T04:43:57.456Z,14.30
2023-03-01T04:46:26.580Z,12.70
2023-03-01T04:48:58.851Z,11.50
2023-03-01T04:51:27.250Z,13.10
2023-03-01T04:54:01.615Z,11.80
2023-03-01T04:56:30.177Z,10.20
2023-03-01T04:58:58.920Z,10.70
2023-03-01T05:01:27.317Z,12.10
2023-03-01T05:03:55.760Z,12.80
2023-03-01T05:06:24.035Z,13.10
2023-03-01T05:08:52.226Z,13.40
2023-03-01T05:11:24.049Z,12.30
2023-03-01T05:13:56.076Z,13.00
2023-03-01T05:16:24.219Z,12.30
2023-03-01T05:18:56.636Z,11.70
2023-03-01T05:21:25.072Z,10.50
2023-03-01T05:23:59.421Z,10.60
2023-03-01T05:26:29.791Z,12.30
2023-03-01T05:29:00.692Z,9.80
2023-03-01T05:31:32.130Z,12.20
2023-03-01T05:34:01.410Z,12.60
2023-03-01T05:36:30.104Z,13.70
2023-03-01T05:38:58.880Z,14.00
2023-03-01T05:41:26.926Z,13.10
2023-03-01T05:46:25.910Z,12.70
2023-03-01T05:49:32.611Z,12.80
2023-03-01T05:52:03.999Z,12.40
2023-03-01T05:54:33.025Z,11.00
2023-03-01T05:57:01.088Z,10.60
2023-03-01T05:59:29.810Z,13.00
2023-03-01T06:01:58.066Z,12.80
2023-03-01T06:04:29.856Z,13.10
2023-03-01T06:06:58.208Z,14.00
2023-03-01T06:09:28.908Z,11.50
2023-03-01T06:11:57.123Z,11.50
2023-03-01T06:14:25.360Z,11.30
2023-03-01T06:16:53.437Z,11.50
2023-03-01T06:19:22.214Z,12.80
2023-03-01T06:21:50.330Z,14.40
2023-03-01T06:24:18.684Z,14.30
2023-03-01T06:26:46.875Z,13.10
2023-03-01T06:29:17.062Z,11.80
2023-03-01T06:31:47.007Z,14.40
2023-03-01T06:34:15.425Z,12.20
2023-03-01T06:36:44.155Z,10.90
2023-03-01T06:39:15.397Z,12.50
2023-03-01T06:41:43.958Z,10.50
2023-03-01T06:44:12.031Z,12.10
2023-03-01T06:46:41.515Z,12.00
2023-03-01T06:49:10.650Z,9.80
2023-03-01T06:51:39.258Z,14.30
2023-03-01T06:54:07.795Z,14.50
2023-03-01T06:56:36.084Z,13.10
2023-03-01T06:59:04.391Z,15.30
2023-03-01T07:01:32.950Z,16.40
2023-03-01T07:04:00.983Z,12.10
2023-03-01T07:06:29.818Z,15.50
2023-03-01T07:08:58.747Z,13.90
2023-03-01T07:11:26.977Z,13.00
2023-03-01T07:13:57.442Z,10.80
2023-03-01T07:16:26.121Z,13.40
2023-03-01T07:18:54.703Z,12.50
2023-03-01T07:21:26.058Z,11.20
2023-03-01T07:23:54.923Z,16.40
2023-03-01T07:26:26.251Z,14.80
2023-03-01T07:28:54.771Z,10.10
2023-03-01T07:31:22.859Z,15.10
2023-03-01T07:33:53.636Z,14.40
2023-03-01T07:36:21.816Z,15.10
2023-03-01T07:38:50.362Z,14.80
2023-03-01T07:41:18.959Z,13.30
2023-03-01T07:43:47.109Z,13.60
2023-03-01T07:46:15.847Z,10.80
2023-03-01T07:48:45.613Z,12.50
2023-03-01T07:51:13.996Z,14.00
2023-03-01T07:53:43.331Z,14.90
2023-03-01T07:56:13.066Z,11.10
2023-03-01T07:58:42.877Z,15.80
2023-03-01T08:01:19.791Z,15.20
2023-03-01T08:03:47.991Z,16.50
2023-03-01T08:06:17.124Z,13.30
2023-03-01T08:08:45.766Z,13.80
2023-03-01T08:11:16.777Z,13.40
2023-03-01T08:14:05.274Z,14.40
2023-03-01T08:16:36.553Z,15.40
2023-03-01T08:19:09.336Z,13.50
2023-03-01T08:21:37.575Z,14.30
2023-03-01T08:24:07.021Z,15.30
2023-03-01T08:29:04.612Z,12.70
2023-03-01T08:31:36.758Z,16.20
2023-03-01T08:34:07.328Z,16.00
2023-03-01T08:36:38.691Z,14.40
2023-03-01T08:39:11.620Z,12.90
2023-03-01T08:41:40.922Z,14.20
2023-03-01T08:44:10.513Z,11.50
2023-03-01T08:46:40.179Z,12.00
2023-03-01T08:49:10.038Z,12.20
2023-03-01T08:51:38.321Z,12.50
2023-03-01T08:54:14.421Z,13.00
2023-03-01T08:56:44.920Z,15.40
2023-03-01T08:59:13.688Z,14.40
2023-03-01T09:01:44.365Z,11.40
2023-03-01T09:04:13.333Z,13.20
2023-03-01T09:06:43.854Z,15.30
2023-03-01T09:09:17.154Z,12.50
2023-03-01T09:11:47.615Z,11.10
2023-03-01T09:14:19.804Z,12.90
2023-03-01T09:16:49.246Z,13.60
2023-03-01T09:19:21.163Z,12.90
2023-03-01T09:21:54.324Z,12.20
2023-03-01T09:24:48.136Z,11.40
2023-03-01T09:27:19.981Z,11.30
2023-03-01T09:29:48.304Z,10.30
2023-03-01T09:32:16.504Z,9.10
2023-03-01T09:35:06.631Z,14.90
2023-03-01T09:37:35.131Z,12.60
2023-03-01T09:40:06.445Z,7.90
2023-03-01T09:42:36.050Z,11.10
2023-03-01T09:45:12.520Z,12.30
2023-03-01T09:47:42.910Z,14.20
2023-03-01T09:50:18.145Z,9.30
2023-03-01T09:53:04.127Z,13.40
2023-03-01T09:56:07.320Z,7.50
2023-03-01T09:58:54.924Z,10.70
2023-03-01T10:01:36.050Z,12.90
2023-03-01T10:04:10.429Z,13.30
2023-03-01T10:06:53.325Z,14.20
2023-03-01T10:09:22.662Z,12.80
2023-03-01T10:11:53.657Z,12.40
2023-03-01T10:14:42.852Z,13.20
2023-03-01T10:17:19.468Z,13.50
2023-03-01T10:19:48.872Z,12.70
2023-03-01T10:22:32.610Z,9.80
2023-03-01T10:25:03.721Z,11.60
2023-03-01T10:27:53.788Z,13.60
2023-03-01T10:30:51.632Z,11.50
2023-03-01T10:33:21.959Z,10.40
2023-03-01T10:35:54.688Z,12.80
2023-03-01T10:38:23.314Z,8.90
2023-03-01T10:40:59.575Z,11.70
2023-03-01T10:43:51.246Z,9.00
2023-03-01T10:46:46.949Z,9.70
2023-03-01T10:49:20.646Z,9.00
2023-03-01T10:51:51.702Z,11.00
2023-03-01T10:54:29.510Z,9.50
2023-03-01T10:57:02.150Z,8.10
2023-03-01T10:59:32.261Z,9.90
2023-03-01T11:05:14.633Z,9.20
2023-03-01T11:07:54.122Z,7.80
2023-03-01T11:10:34.595Z,8.50
2023-03-01T11:13:16.935Z,9.40
2023-03-01T11:16:03.425Z,10.50
2023-03-01T11:18:46.294Z,10.30
2023-03-01T11:21:17.324Z,12.10
2023-03-01T11:23:46.696Z,7.50
2023-03-01T11:26:15.191Z,9.40
2023-03-01T11:28:43.355Z,7.00
2023-03-01T11:31:15.368Z,9.50
2023-03-01T11:34:09.386Z,8.80
2023-03-01T11:36:50.811Z,9.40
2023-03-01T11:39:29.765Z,8.40
2023-03-01T11:42:19.166Z,8.20
2023-03-01T11:44:49.775Z,11.20
2023-03-01T11:47:35.164Z,7.20
2023-03-01T11:50:18.201Z,6.90
2023-03-01T11:53:02.934Z,6.50
2023-03-01T11:55:31.344Z,9.10
2023-03-01T11:58:15.697Z,9.40
2023-03-01T12:00:53.086Z,10.60
2023-03-01T12:06:04.778Z,7.70
2023-03-01T12:09:04.187Z,10.80
2023-03-01T12:12:11.038Z,9.50
2023-03-01T12:14:56.637Z,8.50
2023-03-01T12:17:49.932Z,10.80
2023-03-01T12:20:56.139Z,10.50
2023-03-01T12:23:40.089Z,11.70
2023-03-01T12:26:14.394Z,13.60
2023-03-01T12:28:49.749Z,12.30
2023-03-01T12:31:29.562Z,11.20
2023-03-01T12:34:05.088Z,12.30
2023-03-01T12:36:45.690Z,7.20
2023-03-01T12:39:36.184Z,15.00
2023-03-01T12:42:20.817Z,13.00
2023-03-01T12:45:07.976Z,11.10
2023-03-01T12:48:01.609Z,10.00
2023-03-01T12:50:51.678Z,12.00
2023-03-01T12:53:36.087Z,12.60
2023-03-01T12:56:13.006Z,11.30
2023-03-01T12:59:00.739Z,12.40
2023-03-01T13:02:15.506Z,10.50
2023-03-01T13:04:55.459Z,13.50
2023-03-01T13:07:30.217Z,11.80
2023-03-01T13:10:11.825Z,12.70
2023-03-01T13:13:01.449Z,14.20
2023-03-01T13:15:31.982Z,14.60
2023-03-01T13:18:02.734Z,13.00
2023-03-01T13:20:34.410Z,13.90
2023-03-01T13:23:28.364Z,11.70
2023-03-01T13:25:59.892Z,14.20
2023-03-01T13:28:37.977Z,14.70
2023-03-01T13:31:11.641Z,13.00
2023-03-01T13:34:02.644Z,14.50
2023-03-01T13:36:33.838Z,12.50
2023-03-01T13:39:06.328Z,18.80
2023-03-01T13:41:40.559Z,16.70
2023-03-01T13:44:22.597Z,16.40
2023-03-01T13:46:55.385Z,14.20
2023-03-01T13:49:27.386Z,18.10
2023-03-01T13:51:56.758Z,15.70
2023-03-01T13:54:31.813Z,15.00
2023-03-01T13:57:04.554Z,10.70
2023-03-01T13:59:32.978Z,12.60
2023-03-01T14:02:01.715Z,13.60
2023-03-01T14:04:36.873Z,13.50
2023-03-01T14:07:32.062Z,14.30
2023-03-01T14:10:05.149Z,9.20
2023-03-01T14:12:54.368Z,12.30
2023-03-01T14:15:35.061Z,11.20
2023-03-01T14:18:12.974Z,11.00
2023-03-01T14:20:52.263Z,11.60
2023-03-01T14:23:23.029Z,10.50
2023-03-01T14:25:58.355Z,10.00
2023-03-01T14:28:28.515Z,14.60
2023-03-01T14:31:01.114Z,13.60
2023-03-01T14:33:34.615Z,10.20
2023-03-01T14:36:10.917Z,12.70
2023-03-01T14:38:42.910Z,13.10
2023-03-01T14:41:17.042Z,10.50
2023-03-01T14:44:06.399Z,13.60
2023-03-01T14:46:48.325Z,11.90
2023-03-01T14:49:27.098Z,11.00
2023-03-01T14:51:59.028Z,10.60
2023-03-01T14:54:41.724Z,11.20
2023-03-01T14:57:17.885Z,10.80
2023-03-01T14:59:46.479Z,10.90
2023-03-01T15:02:18.416Z,14.10
2023-03-01T15:04:57.869Z,14.20
2023-03-01T15:07:32.645Z,12.90
2023-03-01T15:10:01.967Z,13.80
2023-03-01T15:12:30.380Z,13.70
2023-03-01T15:15:04.425Z,15.40
2023-03-01T15:17:39.663Z,14.40
2023-03-01T15:20:18.916Z,17.10
2023-03-01T15:22:49.745Z,14.80
2023-03-01T15:25:23.127Z,13.90
2023-03-01T15:27:52.399Z,13.20
2023-03-01T15:30:24.459Z,12.30
2023-03-01T15:33:32.792Z,15.50
2023-03-01T15:36:40.121Z,13.70
2023-03-01T15:39:38.577Z,20.00
2023-03-01T15:42:12.516Z,18.90
2023-03-01T15:44:44.315Z,13.20
2023-03-01T15:47:32.034Z,18.80
2023-03-01T15:50:01.123Z,15.90
2023-03-01T15:52:40.663Z,18.40
2023-03-01T15:55:37.135Z,13.20
2023-03-01T15:58:13.610Z,15.30
2023-03-01T16:00:48.790Z,15.70
2023-03-01T16:03:23.731Z,14.40
2023-03-01T16:05:52.134Z,17.50
2023-03-01T16:08:20.238Z,18.90
2023-03-01T16:10:51.006Z,15.60
2023-03-01T16:13:20.529Z,12.10
2023-03-01T16:15:48.831Z,10.00
2023-03-01T16:18:22.668Z,13.70
2023-03-01T16:20:51.972Z,14.80
2023-03-01T16:23:26.215Z,12.90
2023-03-01T16:25:57.357Z,13.50
2023-03-01T16:28:25.496Z,14.00
2023-03-01T16:30:54.396Z,15.40
2023-03-01T16:33:33.603Z,12.90
2023-03-01T16:38:37.011Z,12.90
2023-03-01T16:41:07.052Z,13.50
2023-03-01T16:43:36.789Z,11.10
2023-03-01T16:46:17.458Z,12.90
2023-03-01T16:48:46.763Z,12.20
2023-03-01T16:51:21.878Z,12.80
2023-03-01T16:53:50.511Z,12.90
2023-03-01T16:56:19.213Z,13.30
2023-03-01T16:58:48.093Z,12.30
2023-03-01T17:01:25.662Z,13.60
2023-03-01T17:04:14.220Z,13.40
2023-03-01T17:06:42.461Z,14.70
2023-03-01T17:09:10.948Z,15.30
2023-03-01T17:11:39.104Z,11.50
2023-03-01T17:14:11.508Z,13.80
2023-03-01T17:16:39.948Z,13.00
2023-03-01T17:19:08.771Z,15.60
2023-03-01T17:21:41.249Z,13.60
2023-03-01T17:24:10.012Z,12.00
2023-03-01T17:26:38.715Z,12.90
2023-03-01T17:29:07.136Z,14.60
2023-03-01T17:31:35.409Z,10.40
2023-03-01T17:34:03.653Z,11.20
2023-03-01T17:36:34.730Z,11.40
2023-03-01T17:39:03.106Z,13.80
2023-03-01T17:41:31.510Z,11.60
2023-03-01T17:43:59.975Z,11.30
2023-03-01T17:46:29.131Z,11.20
2023-03-01T17:49:03.817Z,11.30
2023-03-01T17:51:51.133Z,10.50
2023-03-01T17:54:20.733Z,12.90
2023-03-01T17:56:50.006Z,15.40
2023-03-01T17:59:22.797Z,13.50
2023-03-01T18:01:51.301Z,12.80
2023-03-01T18:04:20.251Z,8.80
2023-03-01T18:06:50.705Z,8.20
2023-03-01T18:09:19.936Z,8.30
2023-03-01T18:11:54.136Z,9.70
2023-03-01T18:14:23.236Z,9.40
2023-03-01T18:16:51.821Z,10.10
2023-03-01T18:19:25.843Z,8.50
2023-03-01T18:21:54.468Z,10.20
2023-03-01T18:24:22.495Z,9.00
2023-03-01T18:26:50.783Z,10.80
2023-03-01T18:29:22.055Z,6.80
2023-03-01T18:31:50.508Z,7.70
2023-03-01T18:34:23.041Z,7.70
2023-03-01T18:39:38.253Z,5.70
2023-03-01T18:42:08.333Z,5.00
2023-03-01T18:44:39.298Z,6.50
2023-03-01T18:47:07.618Z,8.00
2023-03-01T18:49:38.538Z,5.30
2023-03-01T18:52:06.821Z,5.70
2023-03-01T18:54:36.410Z,4.40
2023-03-01T18:57:04.784Z,5.20
2023-03-01T18:59:38.189Z,6.20
2023-03-01T19:02:06.788Z,6.90
2023-03-01T19:04:35.032Z,4.80
2023-03-01T19:07:03.488Z,7.20
2023-03-01T19:09:35.761Z,6.50
2023-03-01T19:12:06.370Z,6.30
2023-03-01T19:14:34.924Z,7.40
2023-03-01T19:17:05.077Z,5.50
2023-03-01T19:19:33.442Z,6.50
2023-03-01T19:22:06.234Z,6.30
2023-03-01T19:24:36.617Z,6.00
2023-03-01T19:27:07.978Z,5.20
2023-03-01T19:29:37.546Z,6.60
2023-03-01T19:32:06.947Z,6.70
2023-03-01T19:34:35.881Z,9.60
2023-03-01T19:37:04.532Z,9.80
2023-03-01T19:39:32.539Z,10.00
2023-03-01T19:42:00.713Z,12.60
2023-03-01T19:44:29.170Z,7.70
2023-03-01T19:46:58.525Z,6.40
2023-03-01T19:49:28.411Z,6.40
2023-03-01T19:52:04.365Z,7.00
2023-03-01T19:54:32.812Z,6.60
2023-03-01T19:57:01.193Z,6.60
2023-03-01T19:59:30.126Z,7.20
2023-03-01T20:01:58.396Z,7.70
2023-03-01T20:04:26.568Z,8.90
2023-03-01T20:06:54.749Z,10.60
2023-03-01T20:09:22.853Z,9.00
2023-03-01T20:11:52.331Z,9.80
2023-03-01T20:14:27.357Z,12.50
2023-03-01T20:16:58.028Z,9.90
2023-03-01T20:19:34.258Z,11.80
2023-03-01T20:22:03.706Z,13.70
2023-03-01T20:24:32.051Z,13.40
2023-03-01T20:27:03.362Z,12.30
2023-03-01T20:29:33.103Z,10.60
2023-03-01T20:32:02.251Z,9.90
2023-03-01T20:34:32.050Z,10.30
2023-03-01T20:37:00.447Z,12.00
2023-03-01T20:39:28.894Z,9.50
2023-03-01T20:41:58.409Z,9.70
2023-03-01T20:46:58.176Z,11.00
2023-03-01T20:49:26.327Z,10.80
2023-03-01T20:51:54.684Z,12.40
2023-03-01T20:54:28.069Z,12.60
2023-03-01T20:56:56.310Z,12.00
2023-03-01T20:59:24.563Z,12.00
2023-03-01T21:01:52.952Z,14.90
2023-03-01T21:04:22.442Z,14.90
2023-03-01T21:06:50.682Z,13.70
2023-03-01T21:09:19.115Z,15.30
2023-03-01T21:11:50.270Z,14.30
2023-03-01T21:14:18.521Z,12.00
2023-03-01T21:16:46.916Z,12.70
2023-03-01T21:19:15.667Z,12.90
2023-03-01T21:21:43.941Z,11.30
2023-03-01T21:24:14.929Z,11.30
2023-03-01T21:26:45.701Z,10.60
2023-03-01T21:29:13.769Z,11.50
2023-03-01T21:31:42.669Z,9.10
2023-03-01T21:34:11.848Z,8.90
2023-03-01T21:36:39.921Z,10.00
2023-03-01T21:39:08.064Z,9.60
2023-03-01T21:41:36.992Z,9.40
2023-03-01T21:44:06.910Z,11.00
2023-03-01T21:46:37.372Z,10.50
2023-03-01T21:49:06.002Z,10.50
2023-03-01T21:51:36.775Z,10.40
2023-03-01T21:54:18.017Z,9.80
2023-03-01T21:56:47.138Z,9.10
2023-03-01T21:59:20.924Z,10.20
2023-03-01T22:01:49.659Z,10.90
2023-03-01T22:04:17.849Z,9.70
2023-03-01T22:06:46.831Z,10.80
2023-03-01T22:09:17.532Z,9.80
2023-03-01T22:11:52.158Z,9.10
2023-03-01T22:14:21.721Z,10.50
2023-03-01T22:16:51.696Z,9.00
2023-03-01T22:19:21.970Z,12.70
2023-03-01T22:22:00.307Z,14.00
2023-03-01T22:24:34.858Z,14.30
2023-03-01T22:27:03.069Z,11.80
2023-03-01T22:29:34.371Z,10.30
2023-03-01T22:32:03.155Z,11.40
2023-03-01T22:34:31.797Z,9.70
2023-03-01T22:37:00.513Z,9.70
2023-03-01T22:39:30.036Z,10.40
2023-03-01T22:42:00.300Z,9.60
2023-03-01T22:44:34.251Z,10.60
2023-03-01T22:47:02.403Z,11.60
2023-03-01T22:49:35.964Z,11.10
2023-03-01T22:52:06.939Z,11.80
2023-03-01T22:54:35.502Z,10.20
2023-03-01T22:57:05.016Z,9.60
2023-03-01T22:59:38.139Z,9.20
2023-03-01T23:02:06.330Z,9.00
2023-03-01T23:04:34.540Z,8.50
2023-03-01T23:07:03.003Z,9.00
2023-03-01T23:09:36.036Z,10.00
2023-03-01T23:12:10.941Z,10.30
2023-03-01T23:14:46.349Z,10.10
2023-03-01T23:17:17.345Z,8.50
2023-03-01T23:19:45.459Z,10.30
2023-03-01T23:22:13.625Z,9.60
2023-03-01T23:24:42.464Z,9.10
2023-03-01T23:27:12.783Z,10.40
2023-03-01T23:29:45.307Z,7.40
2023-03-01T23:32:20.255Z,7.40
2023-03-01T23:34:50.831Z,8.50
2023-03-01T23:37:23.694Z,7.80
2023-03-01T23:39:53.758Z,7.40
2023-03-01T23:42:21.799Z,8.80
2023-03-01T23:44:50.216Z,7.80
2023-03-01T23:47:21.846Z,8.10
2023-03-01T23:49:53.002Z,8.90
2023-03-01T23:52:26.683Z,7.90
2023-03-01T23:54:57.270Z,8.40
2023-03-01T23:57:28.789Z,8.90
2023-03-01T23:59:58.742Z,10.40
